Aérodrome :
LOGIN :

S'inscrire | Disclaimer

   EN    FR    IT 

 










Légende :    VFR   VFR Marginal   IFR   IFR Intensif   IFR Très Intensif
Visi : 
Plafond : 
>= 8 km
>= 3000ft
5 à 8 km
1000 à 3000 ft
1500m à 5 km
500 à 1000 ft
800 à 1500m
200 à 500 ft
< 800m
< 200 ft
Symboles :   Orages  Brouillard  Fortes neiges  Fortes précipitations  Vent > 20 kt
SIGMETs :   Divers  Orages  Givrage  Turbulence  Onde Orograph.  Cendres Volcan.






- Altitude de l'aérodrome : 19 ft
- Code IATA : BEB


EGPL - Benbecula

DERNIER METAR :
  • 142150Z AUTO 36008KT 9999 FEW019/// SCT034/// 03/01 Q1019

METARs EXPIRÉS :
  • 142120Z AUTO 36009KT 9999 NCD 04/02 Q1019
  • 142050Z AUTO 35014KT 9999 NCD 04/02 Q1019
  • 142020Z AUTO 36011KT 9999 NCD 04/02 Q1018
  • 141950Z AUTO 35011KT 9999 FEW006/// 04/01 Q1018 RERA
  • 141920Z AUTO 35015KT 9999 FEW006/// SCT014/// BKN022/// 04/02 Q1018
  • 141850Z AUTO 01013KT 9999 FEW034/// 04/01 Q1018

Prévision TAF périmée.
ATIS : +44 1870 604 818



MET'MAP, la Météo Aéronautique d'un coup d'oeil ! - Copyright ORBIFLY Décembre 2007 - Disclaimer

ORBIFLY MET'MAP TEAM :

Programmation & Développement : Alexandra Zaïnal
Conception & Développement : Baudouin d'Aumeries
Co-Programmation & Développement : Marc-Olivier Méhu
Soutien technique & logistique : Manuel Goepfert

Contact : metmap@orbifly.com




SOURCES & CREDITS :

   NOAA